Flight Track Log - Related Links

Times and Time Zones

All times are in EDT time to prevent confusion due to time zone crossing. See the AWE1212 flight status page for this flight to view local times or setup timezone preferences in your user account.

Time Position Orientation Groundspeed Altitude Reporting Facility
EDT Latitude Longitude Course Direction KTS MPH feet Rate Location/Type
Tue 02:51:50 PM 29.9569 -95.3369 133° Southeast 179 206 900  Level Houston Center
Tue 02:52:45 PM 29.9214 -95.2931 133° Southeast 234 269 2,900 2,122 Climbing Houston Center
Tue 02:53:12 PM 29.9078 -95.2708 125° Southeast 219 252 3,800 1,082 Climbing Houston Center
Tue 02:53:46 PM 29.8775 -95.2283 129° Southeast 283 326 4,000 194 Climbing Houston Center
Tue 02:54:14 PM 29.8742 -95.1950 97° East 260 299 4,000  Level Houston Center
Tue 02:54:47 PM 29.8692 -95.1378 96° East 266 306 4,000  Level Houston Center
Tue 02:55:16 PM 29.8683 -95.1083 92° East 266 306 4,000 1,701 Level Houston Center
Tue 02:55:54 PM 29.8603 -95.0425 98° East 272 313 5,900 2,516 Climbing Houston Center
Tue 02:56:18 PM 29.8597 -95.0214 92° East 270 311 6,600 2,597 Climbing Houston Center
Tue 02:57:01 PM 29.8486 -94.9403 99° East 296 341 8,800 2,419 Climbing Houston Center
Tue 02:57:20 PM 29.8497 -94.9281 84° East 290 334 9,100 1,852 Climbing Houston Center
Tue 02:58:22 PM 29.8786 -94.8083 74° East 324 373 11,300 2,323 Climbing Houston Center
Tue 02:59:24 PM 29.9044 -94.6928 76° East 366 421 13,900 2,226 Climbing Houston Center
Tue 03:00:26 PM 29.9336 -94.5753 74° East 377 434 15,900 1,984 Climbing Houston Center
Tue 03:01:28 PM 29.9628 -94.4436 76° East 398 458 18,000 1,968 Climbing Houston Center
Tue 03:02:31 PM 29.9939 -94.3164 74° East 409 471 20,000 960 Climbing Houston Center
Tue 03:03:33 PM 30.0119 -94.1808 81° East 426 490 20,000 194 Level Houston Center
Tue 03:04:35 PM 30.0283 -94.0461 82° East 426 490 20,400 1,161 Climbing Houston Center
Tue 03:05:37 PM 30.0494 -93.8803 82° East 436 502 22,400 1,210 Climbing Houston Center
Tue 03:06:39 PM 30.0667 -93.7369 82° East 449 517 22,900 871 Climbing Houston Center
Tue 03:07:41 PM 30.0839 -93.5953 82° East 452 520 24,200 1,258 Climbing Houston Center
Tue 03:08:43 PM 30.0994 -93.4494 83° East 465 535 25,500 1,392 Climbing Houston Center
Tue 03:09:46 PM 30.1219 -93.2706 82° East 475 547 27,100 1,440 Climbing Houston Center
Tue 03:10:48 PM 30.1400 -93.1178 82° East 483 556 28,500 1,500 Climbing Houston Center
Tue 03:11:50 PM 30.1681 -92.9683 78° East 480 552 30,200 1,403 Climbing Houston Center
Tue 03:12:52 PM 30.1969 -92.8233 77° East 469 540 31,400 1,161 Climbing Houston Center
Tue 03:13:54 PM 30.2253 -92.6742 78° East 475 547 32,600 1,306 Climbing Houston Center
Tue 03:14:56 PM 30.2592 -92.5014 77° East 464 534 34,100 1,065 Climbing Houston Center
Tue 03:15:58 PM 30.2856 -92.3589 78° East 457 526 34,800 435 Climbing Houston Center
Tue 03:17:00 PM 30.3108 -92.2281 77° East 459 528 35,000 96 Climbing Houston Center
Tue 03:18:03 PM 30.3442 -92.0550 77° East 461 531 35,000  Level Houston Center
Tue 03:19:05 PM 30.3714 -91.9100 78° East 464 534 35,000  Level Houston Center
Tue 03:20:07 PM 30.3986 -91.7658 78° East 461 531 35,000  Level Houston Center
Tue 03:21:09 PM 30.4269 -91.6175 77° East 464 534 35,000  Level Houston Center
Tue 03:22:11 PM 30.4528 -91.4708 78° East 466 536 35,000  Level Houston Center
Tue 03:23:13 PM 30.4806 -91.3236 78° East 467 537 35,000  Level Houston Center
Tue 03:24:15 PM 30.5189 -91.1494 76° East 465 535 35,000  Level Houston Center
Tue 03:25:18 PM 30.5522 -91.0039 75° East 467 537 35,000  Level Houston Center
Tue 03:26:20 PM 30.5856 -90.8569 75° East 469 540 35,000  Level Houston Center
Tue 03:27:22 PM 30.6192 -90.7092 75° East 473 544 35,000  Level Houston Center
Tue 03:28:24 PM 30.6514 -90.5606 76° East 474 545 35,000  Level Houston Center
Tue 03:29:26 PM 30.6853 -90.4131 75° East 472 543 35,000  Level Houston Center
Tue 03:30:28 PM 30.7250 -90.2339 75° East 475 547 35,000  Level Houston Center
Tue 03:31:30 PM 30.7583 -90.0850 75° East 475 547 35,000  Level Houston Center
Tue 03:32:33 PM 30.7917 -89.9358 75° East 474 545 35,000  Level Houston Center
Tue 03:33:35 PM 30.8228 -89.7867 76° East 472 543 35,000  Level Houston Center
Tue 03:34:38 PM 30.8553 -89.6389 76° East 469 540 35,000  Level Houston Center
Tue 03:35:39 PM 30.8867 -89.4931 76° East 464 534 35,000  Level Houston Center
Tue 03:36:41 PM 30.9172 -89.3461 76° East 465 535 35,000  Level Houston Center
Tue 03:37:43 PM 30.9553 -89.1706 76° East 465 535 35,000  Level Houston Center
Tue 03:38:45 PM 30.9850 -89.0239 77° East 465 535 35,000  Level Houston Center
Tue 03:39:48 PM 31.0133 -88.8831 77° East 465 535 35,000  Level Houston Center
Tue 03:40:50 PM 31.0442 -88.7378 76° East 463 533 35,000  Level Houston Center
Tue 03:41:52 PM 31.0758 -88.5858 76° East 462 532 35,000  Level Houston Center
Tue 03:42:54 PM 31.1189 -88.4458 70° East 455 524 35,000  Level Houston Center
Tue 03:43:34 PM 31.1792 -88.3464 55° Northeast 456 525 35,000  Level Atlanta Center
Tue 03:44:34 PM 31.2439 -88.2183 59° Northeast 434 499 35,000  Level Atlanta Center
Tue 03:45:34 PM 31.3108 -88.0928 58° Northeast 440 506 35,000  Level Atlanta Center
Tue 03:46:00 PM 31.3342 -88.0411 62° Northeast 457 526 35,000  Level Houston Center
Tue 03:46:34 PM 31.3794 -87.9669 54° Northeast 445 512 35,000  Level Atlanta Center
Tue 03:47:34 PM 31.4442 -87.8383 59° Northeast 445 512 35,000  Level Atlanta Center
Tue 03:48:34 PM 31.5106 -87.7119 58° Northeast 445 512 35,000  Level Atlanta Center
Tue 03:49:34 PM 31.5789 -87.5856 58° Northeast 450 518 35,000  Level Atlanta Center
Tue 03:50:34 PM 31.6431 -87.4586 59° Northeast 450 518 35,000  Level Atlanta Center
Tue 03:51:34 PM 31.7069 -87.3342 59° Northeast 450 518 35,000  Level Atlanta Center
Tue 03:52:34 PM 31.7619 -87.2239 60° Northeast 442 509 35,000  Level Atlanta Center
Tue 03:53:34 PM 31.8256 -87.0967 59° Northeast 437 503 35,000  Level Atlanta Center
Tue 03:54:34 PM 31.8914 -86.9692 59° Northeast 442 509 35,000  Level Atlanta Center
Tue 03:55:34 PM 31.9569 -86.8417 59° Northeast 442 509 35,000  Level Atlanta Center
Tue 03:56:34 PM 32.0353 -86.7019 56° Northeast 447 514 35,000  Level Atlanta Center
Tue 03:57:34 PM 32.1006 -86.5739 59° Northeast 447 514 35,000  Level Atlanta Center
Tue 03:58:34 PM 32.1658 -86.4408 60° Northeast 452 520 35,000  Level Atlanta Center
Tue 03:59:34 PM 32.2306 -86.3200 58° Northeast 452 520 35,000  Level Atlanta Center
Tue 04:00:34 PM 32.3078 -86.2161 49° Northeast 452 520 35,000  Level Atlanta Center
Tue 04:01:34 PM 32.3725 -86.0875 59° Northeast 452 520 35,000  Level Atlanta Center
Tue 04:02:34 PM 32.4436 -85.9464 59° Northeast 452 520 35,000  Level Atlanta Center
Tue 04:03:34 PM 32.5125 -85.8122 59° Northeast 452 520 35,000  Level Atlanta Center
Tue 04:04:34 PM 32.5789 -85.6781 60° Northeast 465 535 35,000  Level Atlanta Center
Tue 04:05:34 PM 32.6453 -85.5461 59° Northeast 465 535 35,000  Level Atlanta Center
Tue 04:06:34 PM 32.7094 -85.4164 60° Northeast 465 535 35,000  Level Atlanta Center
Tue 04:07:34 PM 32.7714 -85.2864 60° Northeast 460 529 35,000  Level Atlanta Center
Tue 04:08:34 PM 32.8394 -85.1564 58° Northeast 460 529 35,000  Level Atlanta Center
Tue 04:09:34 PM 32.9053 -85.0286 58° Northeast 455 524 35,000  Level Atlanta Center
Tue 04:10:34 PM 32.9606 -84.9078 61° Northeast 460 529 35,000  Level Atlanta Center
Tue 04:11:34 PM 33.0239 -84.7747 60° Northeast 465 535 35,000  Level Atlanta Center
Tue 04:12:34 PM 33.0894 -84.6414 60° Northeast 465 535 35,000  Level Atlanta Center
Tue 04:13:34 PM 33.1547 -84.5078 60° Northeast 460 529 35,000  Level Atlanta Center
Tue 04:14:34 PM 33.2197 -84.3717 60° Northeast 465 535 35,000  Level Atlanta Center
Tue 04:15:34 PM 33.2828 -84.2375 61° Northeast 465 535 35,000  Level Atlanta Center
Tue 04:16:34 PM 33.3475 -84.1033 60° Northeast 465 535 35,000  Level Atlanta Center
Tue 04:17:34 PM 33.4103 -83.9667 61° Northeast 465 535 35,000  Level Atlanta Center
Tue 04:18:34 PM 33.4725 -83.8347 60° Northeast 465 535 35,000  Level Atlanta Center
Tue 04:19:34 PM 33.5369 -83.7025 60° Northeast 460 529 35,000 -50 Level Atlanta Center
Tue 04:20:34 PM 33.6056 -83.5575 60° Northeast 460 529 34,900 -500 Descending Atlanta Center
Tue 04:21:34 PM 33.6694 -83.4222 60° Northeast 460 529 34,000 -450 Descending Atlanta Center
Tue 04:22:34 PM 33.7336 -83.2869 60° Northeast 465 535 34,000 -200 Level Atlanta Center
Tue 04:23:34 PM 33.7972 -83.1489 61° Northeast 465 535 33,600 -700 Descending Atlanta Center
Tue 04:24:34 PM 33.8608 -83.0156 60° Northeast 470 541 32,600 -950 Descending Atlanta Center
Tue 04:25:34 PM 33.9244 -82.8747 61° Northeast 465 535 31,700 -950 Descending Atlanta Center
Tue 04:26:34 PM 33.9836 -82.7411 62° Northeast 458 527 30,700 -950 Descending Atlanta Center
Tue 04:27:34 PM 34.0489 -82.6122 59° Northeast 452 520 29,800 -850 Descending Atlanta Center
Tue 04:28:34 PM 34.1206 -82.5056 51° Northeast 446 513 29,000 -900 Descending Atlanta Center
Tue 04:29:34 PM 34.1964 -82.3886 52° Northeast 446 513 28,000 -1,150 Descending Atlanta Center
Tue 04:30:34 PM 34.2719 -82.2692 53° Northeast 446 513 26,700 -1,850 Descending Atlanta Center
Tue 04:31:34 PM 34.3453 -82.1544 52° Northeast 441 507 24,300 -2,400 Descending Atlanta Center
Tue 04:32:34 PM 34.4125 -82.0472 53° Northeast 428 493 21,900 -2,300 Descending Atlanta Center
Tue 04:33:34 PM 34.4775 -81.9422 53° Northeast 398 458 19,700 -2,200 Descending Atlanta Center
Tue 04:34:34 PM 34.5406 -81.8475 51° Northeast 376 433 17,500 -2,150 Descending Atlanta Center
Tue 04:35:34 PM 34.6014 -81.7500 53° Northeast 371 427 15,400 -2,150 Descending Atlanta Center
Tue 04:36:34 PM 34.6622 -81.6575 51° Northeast 355 409 13,200 -1,842 Descending Atlanta Center
Tue 04:37:15 PM 34.7069 -81.5878 52° Northeast 344 396 12,300 -1,100 Descending Atlanta Center
Tue 04:37:34 PM 34.7211 -81.5647 53° Northeast 350 403 12,100 -327 Descending Atlanta Center
Tue 04:38:10 PM 34.7597 -81.5131 48° Northeast 305 351 12,000 -100 Descending Atlanta Center
Tue 04:38:34 PM 34.7758 -81.4897 50° Northeast 317 365 12,000  Level Atlanta Center
Tue 04:39:11 PM 34.8058 -81.4306 58° Northeast 294 338 12,000  Level Atlanta Center
Tue 04:39:34 PM 34.8158 -81.4025 67° East 291 335 12,000  Level Atlanta Center
Tue 04:40:12 PM 34.8733 -81.3628 30° Northeast 299 344 12,000  Level Atlanta Center
Tue 04:40:34 PM 34.8875 -81.3469 43° Northeast 283 326 12,000 98 Level Atlanta Center
Tue 04:41:13 PM 34.9322 -81.2900 46° Northeast 304 350 12,100  Climbing Atlanta Center
Tue 04:41:34 PM 34.9506 -81.2664 47° Northeast 283 326 12,000 -896 Descending Atlanta Center
Tue 04:42:20 PM 34.9908 -81.2094 49° Northeast 304 350 11,100 -1,333 Descending Atlanta Center
Tue 04:43:22 PM 35.0536 -81.1311 46° Northeast 297 342 9,600 -1,026 Descending Atlanta Center
Tue 04:44:17 PM 35.1064 -81.0708 43° Northeast 282 325 9,100 -500 Descending Atlanta Center
Tue 04:44:34 PM 35.1231 -81.0628 22° Northeast 285 328 9,000 -269 Descending Atlanta Center
Tue 04:45:24 PM 35.1900 -81.0703 355° North 279 321 8,800 -973 Descending Atlanta Center
Tue 04:46:25 PM 35.2653 -81.0753 357° North 273 314 7,200 -1,082 Descending Atlanta Center
Tue 04:47:26 PM 35.3300 -81.0833 354° North 216 249 6,600 -983 Descending Atlanta Center
Tue 04:48:21 PM 35.3864 -81.0864 357° North 208 239 5,300 -1,345 Descending Atlanta Center
Tue 04:49:22 PM 35.4253 -81.0467 40° Northeast 224 258 4,000 -976 Descending Atlanta Center
Tue 04:50:24 PM 35.3906 -80.9944 129° Southeast 199 229 3,300 -492 Descending Atlanta Center
Tue 04:51:24 PM 35.3464 -80.9783 163° South 150 173 3,000 -472 Descending Atlanta Center
Tue 04:52:31 PM 35.3025 -80.9772 179° South 145 167 2,300 -738 Descending Atlanta Center
Tue 04:53:26 PM 35.2628 -80.9736 176° South 146 168 1,500 -873 Descending Atlanta Center
Tue 04:55:00 PM 35.2137 -80.9491 158° South  Level Estimated
Tue 05:02:00 PM 35.2137 -80.9491 158° South  Level Estimated

Login

Don't have an account? Register now (free) for customized features, flight alerts, and more!